createdAt,value
2019-04-21T00:00:45.657Z,35.23
2019-04-21T00:03:20.605Z,37.67
2019-04-21T00:06:06.088Z,37.37
2019-04-21T00:08:39.447Z,37.93
2019-04-21T00:11:10.758Z,37.17
2019-04-21T00:13:32.842Z,36.40
2019-04-21T00:15:57.908Z,36.43
2019-04-21T00:18:40.729Z,38.98
2019-04-21T00:21:14.848Z,35.80
2019-04-21T00:23:58.469Z,37.17
2019-04-21T00:26:31.074Z,37.33
2019-04-21T00:29:09.414Z,36.80
2019-04-21T00:31:36.718Z,36.43
2019-04-21T00:33:49.778Z,39.27
2019-04-21T00:36:26.182Z,38.67
2019-04-21T00:39:23.212Z,41.53
2019-04-21T00:41:45.786Z,43.27
2019-04-21T00:44:08.715Z,36.70
2019-04-21T00:46:45.226Z,43.40
2019-04-21T00:49:16.940Z,45.17
2019-04-21T00:52:06.087Z,45.50
2019-04-21T00:54:41.548Z,42.57
2019-04-21T00:57:12.017Z,45.63
2019-04-21T00:59:45.411Z,42.47
2019-04-21T01:02:09.147Z,48.30
2019-04-21T01:04:49.535Z,42.67
2019-04-21T01:07:19.418Z,44.63
2019-04-21T01:09:45.293Z,47.60
2019-04-21T01:12:23.245Z,45.50
2019-04-21T01:14:56.871Z,48.53
2019-04-21T01:17:27.693Z,58.43
2019-04-21T01:19:51.224Z,54.77
2019-04-21T01:22:10.033Z,54.40
2019-04-21T01:24:45.244Z,51.73
2019-04-21T01:27:22.602Z,53.57
2019-04-21T01:30:08.231Z,60.33
2019-04-21T01:32:34.348Z,54.93
2019-04-21T01:35:12.038Z,59.83
2019-04-21T01:37:44.355Z,60.23
2019-04-21T01:40:21.231Z,60.00
2019-04-21T01:43:01.541Z,61.67
2019-04-21T01:45:26.466Z,60.00
2019-04-21T01:47:57.487Z,57.47
2019-04-21T01:50:29.954Z,59.07
2019-04-21T01:53:22.518Z,58.73
2019-04-21T01:55:54.412Z,58.77
2019-04-21T01:58:23.001Z,63.10
2019-04-21T02:00:56.812Z,57.13
2019-04-21T02:06:11.088Z,60.77
2019-04-21T02:08:38.753Z,61.37
2019-04-21T02:13:53.413Z,61.13
2019-04-21T02:16:17.709Z,64.53
2019-04-21T02:18:49.460Z,62.23
2019-04-21T02:21:19.072Z,59.27
2019-04-21T02:23:59.057Z,58.70
2019-04-21T02:26:28.564Z,64.90
2019-04-21T02:29:00.074Z,63.87
2019-04-21T02:31:45.171Z,65.77
2019-04-21T02:36:53.450Z,61.60
2019-04-21T02:41:54.610Z,69.30
2019-04-21T02:46:46.362Z,71.83
2019-04-21T02:52:08.460Z,65.97
2019-04-21T02:54:47.740Z,67.10
2019-04-21T03:00:04.114Z,64.90
2019-04-21T03:02:38.995Z,61.73
2019-04-21T03:05:21.050Z,64.43
2019-04-21T03:07:56.921Z,61.37
2019-04-21T03:10:26.229Z,55.67
2019-04-21T03:12:50.990Z,57.77
2019-04-21T03:15:31.517Z,51.23
2019-04-21T03:18:06.555Z,56.27
2019-04-21T03:20:48.150Z,56.87
2019-04-21T03:23:13.365Z,58.40
2019-04-21T03:25:41.896Z,58.48
2019-04-21T03:28:13.972Z,54.23
2019-04-21T03:40:50.692Z,57.53
2019-04-21T03:45:49.163Z,52.13
2019-04-21T03:48:35.566Z,60.00
2019-04-21T03:50:59.485Z,56.47
2019-04-21T03:53:32.013Z,53.57
2019-04-21T03:58:46.993Z,62.40
2019-04-21T04:01:11.372Z,56.40
2019-04-21T04:06:19.658Z,58.02
2019-04-21T04:11:47.381Z,58.25
2019-04-21T04:14:31.073Z,65.95
2019-04-21T04:19:18.651Z,61.68
2019-04-21T04:21:56.545Z,63.33
2019-04-21T04:24:44.769Z,56.45
2019-04-21T04:26:57.805Z,60.90
2019-04-21T04:37:23.611Z,55.98
2019-04-21T04:42:29.852Z,48.80
2019-04-21T04:45:05.677Z,46.77
2019-04-21T04:49:55.074Z,45.60
2019-04-21T04:55:01.454Z,40.63
2019-04-21T05:02:42.054Z,44.23
2019-04-21T05:05:26.848Z,41.05
2019-04-21T05:07:58.035Z,52.33
2019-04-21T05:10:47.667Z,45.25
2019-04-21T05:13:14.254Z,47.20
2019-04-21T05:15:34.483Z,45.55
2019-04-21T05:18:16.347Z,43.10
2019-04-21T05:20:41.794Z,38.20
2019-04-21T05:23:06.263Z,40.43
2019-04-21T05:25:40.434Z,47.90
2019-04-21T05:28:05.436Z,34.40
2019-04-21T05:31:13.886Z,33.40
2019-04-21T05:33:44.977Z,34.67
2019-04-21T05:36:34.320Z,28.12
2019-04-21T05:39:03.894Z,33.50
2019-04-21T05:41:29.648Z,30.23
2019-04-21T05:44:21.345Z,30.08
2019-04-21T05:47:00.960Z,27.70
2019-04-21T05:49:29.270Z,31.77
2019-04-21T05:51:58.355Z,30.30
2019-04-21T05:54:44.365Z,29.87
2019-04-21T05:57:10.108Z,27.27
2019-04-21T05:59:43.494Z,24.07
2019-04-21T06:02:27.741Z,26.90
2019-04-21T06:07:28.762Z,25.82
2019-04-21T06:09:59.983Z,20.88
2019-04-21T06:12:35.984Z,20.95
2019-04-21T06:15:21.386Z,20.55
2019-04-21T06:17:36.907Z,23.10
2019-04-21T06:20:17.133Z,18.73
2019-04-21T06:22:56.525Z,17.10
2019-04-21T06:28:08.991Z,16.50
2019-04-21T06:30:45.220Z,19.00
2019-04-21T06:33:10.390Z,11.10
2019-04-21T06:36:41.388Z,13.62
2019-04-21T06:41:34.243Z,11.48
2019-04-21T06:44:24.006Z,12.88
2019-04-21T06:46:39.335Z,11.30
2019-04-21T06:49:17.313Z,12.07
2019-04-21T06:51:43.538Z,11.93
2019-04-21T06:54:23.455Z,10.10
2019-04-21T06:56:51.732Z,8.63
2019-04-21T06:59:30.004Z,7.13
2019-04-21T07:02:28.710Z,4.73
2019-04-21T07:04:38.175Z,7.97
2019-04-21T07:07:05.107Z,10.27
2019-04-21T07:09:36.469Z,13.67
2019-04-21T07:12:06.102Z,14.83
2019-04-21T07:14:48.230Z,6.77
2019-04-21T07:17:19.922Z,6.50
2019-04-21T07:19:48.054Z,9.17
2019-04-21T07:22:30.554Z,9.20
2019-04-21T07:25:03.056Z,10.17
2019-04-21T07:27:35.307Z,7.03
2019-04-21T07:30:04.233Z,8.50
2019-04-21T07:32:33.686Z,6.77
2019-04-21T07:35:09.658Z,7.25
2019-04-21T07:37:47.868Z,6.63
2019-04-21T07:40:22.298Z,8.40
2019-04-21T07:42:55.689Z,7.37
2019-04-21T07:45:24.012Z,7.80
2019-04-21T07:48:13.772Z,7.47
2019-04-21T07:51:04.314Z,4.70
2019-04-21T07:53:51.253Z,4.67
2019-04-21T07:56:07.374Z,6.97
2019-04-21T07:58:58.227Z,9.40
2019-04-21T08:01:30.839Z,9.30
2019-04-21T08:04:08.495Z,11.63
2019-04-21T08:06:40.786Z,8.10
2019-04-21T08:09:12.605Z,5.70
2019-04-21T08:11:42.893Z,10.10
2019-04-21T08:14:31.629Z,7.10
2019-04-21T08:17:04.859Z,7.93
2019-04-21T08:19:36.502Z,6.13
2019-04-21T08:22:12.500Z,5.13
2019-04-21T08:24:51.788Z,7.60
2019-04-21T08:27:32.402Z,7.50
2019-04-21T08:30:07.468Z,4.67
2019-04-21T08:32:44.326Z,5.83
2019-04-21T08:35:49.273Z,6.33
2019-04-21T08:37:48.406Z,7.70
2019-04-21T08:40:27.326Z,10.50
2019-04-21T08:42:55.262Z,12.80
2019-04-21T08:45:35.439Z,12.07
2019-04-21T08:48:12.363Z,5.17
2019-04-21T08:50:41.453Z,9.57
2019-04-21T08:53:16.943Z,7.40
2019-04-21T08:55:59.178Z,8.57
2019-04-21T08:58:47.906Z,6.83
2019-04-21T09:01:18.030Z,7.27
2019-04-21T09:03:56.570Z,21.00
2019-04-21T09:06:40.254Z,25.30
2019-04-21T09:08:58.208Z,16.33
2019-04-21T09:11:28.790Z,16.85
2019-04-21T09:14:01.027Z,12.17
2019-04-21T09:16:30.727Z,5.27
2019-04-21T09:18:58.057Z,8.33
2019-04-21T09:21:43.789Z,9.67
2019-04-21T09:24:18.994Z,6.70
2019-04-21T09:26:46.493Z,7.47
2019-04-21T09:29:10.863Z,8.60
2019-04-21T09:31:39.928Z,10.80
2019-04-21T09:34:08.960Z,10.63
2019-04-21T09:36:46.758Z,5.23
2019-04-21T09:39:18.264Z,6.17
2019-04-21T09:41:51.216Z,9.33
2019-04-21T09:44:25.409Z,6.77
2019-04-21T09:46:55.975Z,5.90
2019-04-21T09:49:27.908Z,6.03
2019-04-21T09:51:57.441Z,8.17
2019-04-21T09:54:41.015Z,7.70
2019-04-21T09:57:14.502Z,6.37
2019-04-21T09:59:42.156Z,9.33
2019-04-21T10:02:21.301Z,5.57
2019-04-21T10:04:48.217Z,5.83
2019-04-21T10:07:27.509Z,14.67
2019-04-21T10:09:54.571Z,6.70
2019-04-21T10:12:30.739Z,7.17
2019-04-21T10:15:16.447Z,8.43
2019-04-21T10:17:54.065Z,9.23
2019-04-21T10:20:26.526Z,6.43
2019-04-21T10:22:57.367Z,6.87
2019-04-21T10:25:28.515Z,10.20
2019-04-21T10:27:59.093Z,8.93
2019-04-21T10:30:30.686Z,15.37
2019-04-21T10:33:01.295Z,7.40
2019-04-21T10:35:32.959Z,9.07
2019-04-21T10:38:17.997Z,6.87
2019-04-21T10:40:37.680Z,8.60
2019-04-21T10:43:12.008Z,7.47
2019-04-21T10:45:41.080Z,9.17
2019-04-21T10:48:14.663Z,12.80
2019-04-21T10:50:49.420Z,8.93
2019-04-21T10:53:36.706Z,7.40
2019-04-21T10:56:17.980Z,11.87
2019-04-21T10:58:44.472Z,7.60
2019-04-21T11:01:21.155Z,7.53
2019-04-21T11:04:17.275Z,8.47
2019-04-21T11:06:42.302Z,7.83
2019-04-21T11:09:18.042Z,6.17
2019-04-21T11:11:50.313Z,8.17
2019-04-21T11:14:23.131Z,7.17
2019-04-21T11:16:53.060Z,8.03
2019-04-21T11:19:25.143Z,20.45
2019-04-21T11:21:58.781Z,19.03
2019-04-21T11:24:33.307Z,7.33
2019-04-21T11:27:04.625Z,8.00
2019-04-21T11:29:35.260Z,8.43
2019-04-21T11:32:07.158Z,7.47
2019-04-21T11:34:38.998Z,9.70
2019-04-21T11:37:16.333Z,7.83
2019-04-21T11:39:56.660Z,7.77
2019-04-21T11:42:23.734Z,10.13
2019-04-21T11:44:55.355Z,6.03
2019-04-21T11:47:30.344Z,9.80
2019-04-21T11:50:01.139Z,23.70
2019-04-21T11:52:34.676Z,17.70
2019-04-21T11:55:16.596Z,12.63
2019-04-21T11:57:50.172Z,6.72
2019-04-21T12:00:21.774Z,6.63
2019-04-21T12:02:55.439Z,5.00
2019-04-21T12:05:25.843Z,8.83
2019-04-21T12:07:58.521Z,4.60
2019-04-21T12:10:29.275Z,6.43
2019-04-21T12:13:01.294Z,9.63
2019-04-21T12:15:32.479Z,7.03
2019-04-21T12:18:03.825Z,10.63
2019-04-21T12:20:35.721Z,8.00
2019-04-21T12:23:06.719Z,8.70
2019-04-21T12:25:40.989Z,11.57
2019-04-21T12:28:32.418Z,5.50
2019-04-21T12:31:05.381Z,4.90
2019-04-21T12:33:47.766Z,5.27
2019-04-21T12:36:19.822Z,5.63
2019-04-21T12:38:55.822Z,5.17
2019-04-21T12:41:22.615Z,5.87
2019-04-21T12:43:57.305Z,10.50
2019-04-21T12:46:27.751Z,11.63
2019-04-21T12:49:02.517Z,7.27
2019-04-21T12:51:33.753Z,10.53
2019-04-21T12:54:05.868Z,9.67
2019-04-21T12:56:37.589Z,11.80
2019-04-21T12:59:09.917Z,9.90
2019-04-21T13:01:43.547Z,6.13
2019-04-21T13:04:13.973Z,8.43
2019-04-21T13:06:45.999Z,6.63
2019-04-21T13:09:27.470Z,5.90
2019-04-21T13:11:59.381Z,6.70
2019-04-21T13:14:39.888Z,6.60
2019-04-21T13:17:10.469Z,4.67
2019-04-21T13:19:43.214Z,7.37
2019-04-21T13:22:14.186Z,12.27
2019-04-21T13:24:44.875Z,10.53
2019-04-21T13:27:15.563Z,8.53
2019-04-21T13:29:46.414Z,9.85
2019-04-21T13:32:37.281Z,5.93
2019-04-21T13:35:10.817Z,7.10
2019-04-21T13:37:45.613Z,14.47
2019-04-21T13:40:44.969Z,9.00
2019-04-21T13:43:08.122Z,10.33
2019-04-21T13:45:37.320Z,5.30
2019-04-21T13:48:08.446Z,6.83
2019-04-21T13:50:43.635Z,4.80
2019-04-21T13:53:14.755Z,10.80
2019-04-21T13:55:46.746Z,10.63
2019-04-21T13:58:20.155Z,11.63
2019-04-21T14:00:52.800Z,10.23
2019-04-21T14:03:29.145Z,8.77
2019-04-21T14:06:00.273Z,15.97
2019-04-21T14:08:33.967Z,27.03
2019-04-21T14:11:05.129Z,20.90
2019-04-21T14:13:36.442Z,11.80
2019-04-21T14:16:08.110Z,26.70
2019-04-21T14:18:45.470Z,17.27
2019-04-21T14:21:21.171Z,7.77
2019-04-21T14:24:06.842Z,9.80
2019-04-21T14:26:44.467Z,6.97
2019-04-21T14:29:19.294Z,7.40
2019-04-21T14:31:50.580Z,10.83
2019-04-21T14:34:21.860Z,6.97
2019-04-21T14:36:52.971Z,7.27
2019-04-21T14:39:26.384Z,10.53
2019-04-21T14:41:58.140Z,9.97
2019-04-21T14:44:36.994Z,7.07
2019-04-21T14:47:09.371Z,9.23
2019-04-21T14:49:44.946Z,6.00
2019-04-21T14:52:21.116Z,9.50
2019-04-21T14:55:00.511Z,12.43
2019-04-21T14:57:31.654Z,8.77
2019-04-21T15:00:04.913Z,8.13
2019-04-21T15:02:38.124Z,7.30
2019-04-21T15:05:15.677Z,7.40
2019-04-21T15:08:09.126Z,7.03
2019-04-21T15:10:41.225Z,6.37
2019-04-21T15:13:17.348Z,10.77
2019-04-21T15:15:52.372Z,7.50
2019-04-21T15:18:22.994Z,7.30
2019-04-21T15:20:53.458Z,10.37
2019-04-21T15:23:30.179Z,7.77
2019-04-21T15:25:56.867Z,8.43
2019-04-21T15:28:31.604Z,9.23
2019-04-21T15:31:00.812Z,11.63
2019-04-21T15:33:35.006Z,7.73
2019-04-21T15:36:11.260Z,10.35
2019-04-21T15:38:45.834Z,9.87
2019-04-21T15:41:18.590Z,20.13
2019-04-21T15:43:54.342Z,12.67
2019-04-21T15:46:29.146Z,9.73
2019-04-21T15:49:02.799Z,8.57
2019-04-21T15:51:42.056Z,9.20
2019-04-21T15:54:14.326Z,13.47
2019-04-21T15:56:53.032Z,12.10
2019-04-21T15:59:30.438Z,10.03
2019-04-21T16:02:38.362Z,10.07
2019-04-21T16:05:14.928Z,8.53
2019-04-21T16:07:46.072Z,11.83
2019-04-21T16:10:30.959Z,9.70
2019-04-21T16:12:58.112Z,10.05
2019-04-21T16:15:32.611Z,9.63
2019-04-21T16:18:14.236Z,11.33
2019-04-21T16:20:48.317Z,9.83
2019-04-21T16:24:06.762Z,8.90
2019-04-21T16:26:40.520Z,12.80
2019-04-21T16:29:11.341Z,14.17
2019-04-21T16:31:49.224Z,15.37
2019-04-21T16:37:08.064Z,12.35
2019-04-21T16:39:43.241Z,14.77
2019-04-21T16:42:14.138Z,18.37
2019-04-21T16:44:54.847Z,21.00
2019-04-21T16:47:26.102Z,19.67
2019-04-21T16:49:57.992Z,24.00
2019-04-21T16:52:43.626Z,19.60
2019-04-21T16:55:28.880Z,26.37
2019-04-21T16:58:14.813Z,22.53
2019-04-21T17:00:53.933Z,26.80
2019-04-21T17:03:16.646Z,28.90
2019-04-21T17:05:48.111Z,21.93
2019-04-21T17:08:19.794Z,28.13
2019-04-21T17:11:06.465Z,17.27
2019-04-21T17:16:38.691Z,20.77
2019-04-21T17:18:56.035Z,31.23
2019-04-21T17:21:34.422Z,27.07
2019-04-21T17:24:10.529Z,30.00
2019-04-21T17:26:43.972Z,28.97
2019-04-21T17:29:17.016Z,23.30
2019-04-21T17:35:42.796Z,26.13
2019-04-21T17:38:18.500Z,27.70
2019-04-21T17:40:49.567Z,33.07
2019-04-21T17:43:21.433Z,37.50
2019-04-21T17:45:53.201Z,46.87
2019-04-21T17:48:27.105Z,35.27
2019-04-21T17:51:09.453Z,38.00
2019-04-21T17:53:47.538Z,48.07
2019-04-21T17:56:41.360Z,42.27
2019-04-21T17:59:17.581Z,51.63
2019-04-21T18:02:02.435Z,48.80
2019-04-21T18:04:38.974Z,84.73
2019-04-21T18:07:15.515Z,83.17
2019-04-21T18:09:59.062Z,52.57
2019-04-21T18:12:25.005Z,63.80
2019-04-21T18:14:55.492Z,57.67
2019-04-21T18:17:16.231Z,50.73
2019-04-21T18:19:47.924Z,83.07
2019-04-21T18:22:38.532Z,82.93
2019-04-21T18:25:13.796Z,73.33
2019-04-21T18:27:40.803Z,47.30
2019-04-21T18:30:38.099Z,59.40
2019-04-21T18:33:14.156Z,75.67
2019-04-21T18:36:02.954Z,79.50
2019-04-21T18:39:00.168Z,68.13
2019-04-21T18:41:17.423Z,57.33
2019-04-21T18:44:13.636Z,54.50
2019-04-21T18:47:00.434Z,43.87
2019-04-21T18:49:33.265Z,56.77
2019-04-21T18:52:26.911Z,53.37
2019-04-21T18:55:06.353Z,60.27
2019-04-21T18:57:37.485Z,49.80
2019-04-21T19:00:07.819Z,46.67
2019-04-21T19:02:40.439Z,45.97
2019-04-21T19:05:15.513Z,50.60
2019-04-21T19:08:03.100Z,54.23
2019-04-21T19:11:01.254Z,38.50
2019-04-21T19:13:55.294Z,41.70
2019-04-21T19:18:53.050Z,49.23
2019-04-21T19:21:12.850Z,48.97
2019-04-21T19:23:55.735Z,57.20
2019-04-21T19:26:31.502Z,52.57
2019-04-21T19:29:06.299Z,59.27
2019-04-21T19:31:32.228Z,41.37
2019-04-21T19:34:00.989Z,36.90
2019-04-21T19:36:25.606Z,50.83
2019-04-21T19:39:07.516Z,46.23
2019-04-21T19:41:45.662Z,49.80
2019-04-21T19:44:22.337Z,43.10
2019-04-21T19:46:55.950Z,179.57
2019-04-21T19:49:33.523Z,41.77
2019-04-21T19:51:52.211Z,40.50
2019-04-21T19:54:24.033Z,43.10
2019-04-21T19:56:47.074Z,32.10
2019-04-21T19:59:30.667Z,25.23
2019-04-21T20:02:02.592Z,37.10
2019-04-21T20:04:42.796Z,37.23
2019-04-21T20:07:56.039Z,46.03
2019-04-21T20:14:18.326Z,43.43
2019-04-21T20:20:11.307Z,49.73
2019-04-21T20:30:10.825Z,42.40
2019-04-21T20:43:11.344Z,39.37
2019-04-21T20:52:03.604Z,37.47
2019-04-21T20:54:30.095Z,43.23
2019-04-21T20:57:06.958Z,43.73
2019-04-21T20:59:34.476Z,37.50
2019-04-21T21:02:05.518Z,34.23
2019-04-21T21:04:30.093Z,39.80
2019-04-21T21:07:20.879Z,40.03
2019-04-21T21:09:41.222Z,45.83
2019-04-21T21:14:47.452Z,41.67
2019-04-21T21:17:40.797Z,40.57
2019-04-21T21:20:05.559Z,36.17
2019-04-21T21:22:24.883Z,38.80
2019-04-21T21:25:00.253Z,37.93
2019-04-21T21:27:30.112Z,43.47
2019-04-21T21:30:01.560Z,37.63
2019-04-21T21:32:40.066Z,37.30
2019-04-21T21:35:12.033Z,49.80
2019-04-21T21:37:41.086Z,39.23
2019-04-21T21:40:18.668Z,36.30
2019-04-21T21:42:33.827Z,36.70
2019-04-21T21:45:06.098Z,30.73
2019-04-21T21:47:50.033Z,40.53
2019-04-21T21:50:15.087Z,31.73
2019-04-21T21:52:48.960Z,37.63
2019-04-21T21:55:09.865Z,42.07
2019-04-21T21:57:47.385Z,32.30
2019-04-21T22:00:15.528Z,34.63
2019-04-21T22:02:52.781Z,44.13
2019-04-21T22:05:24.358Z,42.60
2019-04-21T22:07:54.302Z,36.27
2019-04-21T22:10:25.298Z,53.33
2019-04-21T22:13:03.999Z,33.10
2019-04-21T22:15:30.279Z,32.87
2019-04-21T22:18:22.517Z,45.63
2019-04-21T22:20:47.605Z,36.47
2019-04-21T22:23:11.283Z,36.47
2019-04-21T22:25:39.508Z,32.13
2019-04-21T22:28:09.572Z,37.40
2019-04-21T22:30:45.675Z,36.00
2019-04-21T22:33:15.837Z,33.97
2019-04-21T22:35:53.326Z,31.90
2019-04-21T22:38:34.821Z,33.13
2019-04-21T22:41:02.928Z,36.13
2019-04-21T22:43:28.516Z,36.93
2019-04-21T22:45:53.680Z,35.10
2019-04-21T22:48:28.261Z,31.63
2019-04-21T22:50:56.505Z,35.60
2019-04-21T22:53:27.994Z,31.47
2019-04-21T22:56:07.385Z,30.43
2019-04-21T22:58:35.692Z,30.33
2019-04-21T23:01:04.223Z,31.30
2019-04-21T23:03:35.775Z,27.80
2019-04-21T23:06:14.562Z,29.23
2019-04-21T23:08:43.497Z,29.07
2019-04-21T23:11:12.554Z,29.83
2019-04-21T23:13:45.027Z,31.13
2019-04-21T23:16:20.529Z,26.73
2019-04-21T23:19:09.639Z,30.70
2019-04-21T23:21:44.212Z,32.33
2019-04-21T23:24:08.752Z,31.00
2019-04-21T23:26:39.417Z,27.00
2019-04-21T23:29:15.642Z,28.03
2019-04-21T23:31:47.118Z,28.67
2019-04-21T23:34:02.360Z,27.60
2019-04-21T23:36:35.253Z,31.30
2019-04-21T23:39:18.319Z,29.03
2019-04-21T23:41:46.205Z,34.30
2019-04-21T23:44:13.676Z,37.50
2019-04-21T23:46:44.443Z,35.77
2019-04-21T23:49:31.944Z,36.50
2019-04-21T23:51:54.957Z,32.60
2019-04-21T23:54:19.818Z,34.60
2019-04-21T23:56:51.458Z,33.98
2019-04-21T23:59:22.593Z,33.90
